sensor_id;sensor_type;location;lat;lon;timestamp;pressure;altitude;pressure_sealevel;temperature;humidity
6224;BME280;3145;42.726;23.342;2023-04-22T00:01:52;72484.34;;;-142.70;68.13
6224;BME280;3145;42.726;23.342;2023-04-22T00:04:18;72496.44;;;-142.70;68.11
6224;BME280;3145;42.726;23.342;2023-04-22T00:06:47;72512.56;;;-142.70;68.09
6224;BME280;3145;42.726;23.342;2023-04-22T00:09:13;72520.59;;;-142.70;68.14
6224;BME280;3145;42.726;23.342;2023-04-22T00:11:40;72522.63;;;-142.70;68.18
6224;BME280;3145;42.726;23.342;2023-04-22T00:14:07;72540.75;;;-142.70;67.91
6224;BME280;3145;42.726;23.342;2023-04-22T00:16:33;72538.75;;;-142.70;68.52
6224;BME280;3145;42.726;23.342;2023-04-22T00:19:00;72540.75;;;-142.70;68.83
6224;BME280;3145;42.726;23.342;2023-04-22T00:21:27;72554.84;;;-142.70;68.65
6224;BME280;3145;42.726;23.342;2023-04-22T00:23:55;72558.88;;;-142.70;69.10
6224;BME280;3145;42.726;23.342;2023-04-22T00:26:22;72572.97;;;-142.70;69.09
6224;BME280;3145;42.726;23.342;2023-04-22T00:28:49;72579.03;;;-142.70;69.33
6224;BME280;3145;42.726;23.342;2023-04-22T00:31:15;72591.13;;;-142.70;69.40
6224;BME280;3145;42.726;23.342;2023-04-22T00:33:42;72605.22;;;-142.70;69.75
6224;BME280;3145;42.726;23.342;2023-04-22T00:36:09;72613.28;;;-142.70;69.42
6224;BME280;3145;42.726;23.342;2023-04-22T00:38:35;72635.44;;;-142.70;69.69
6224;BME280;3145;42.726;23.342;2023-04-22T00:41:04;72651.56;;;-142.70;69.62
6224;BME280;3145;42.726;23.342;2023-04-22T00:43:31;72669.69;;;-142.70;69.24
6224;BME280;3145;42.726;23.342;2023-04-22T00:45:58;72673.72;;;-142.70;69.87
6224;BME280;3145;42.726;23.342;2023-04-22T00:48:25;72681.78;;;-142.70;69.68
6224;BME280;3145;42.726;23.342;2023-04-22T00:50:52;72685.81;;;-142.70;70.29
6224;BME280;3145;42.726;23.342;2023-04-22T00:53:19;72689.84;;;-142.70;70.17
6224;BME280;3145;42.726;23.342;2023-04-22T00:55:46;72685.81;;;-142.70;70.40
6224;BME280;3145;42.726;23.342;2023-04-22T00:58:14;72681.78;;;-142.70;70.23
6224;BME280;3145;42.726;23.342;2023-04-22T01:00:42;72685.81;;;-142.70;69.97
6224;BME280;3145;42.726;23.342;2023-04-22T01:03:09;72693.84;;;-142.70;70.40
6224;BME280;3145;42.726;23.342;2023-04-22T01:05:36;72697.88;;;-142.70;70.41
6224;BME280;3145;42.726;23.342;2023-04-22T01:08:03;72699.91;;;-142.70;70.67
6224;BME280;3145;42.726;23.342;2023-04-22T01:10:30;72691.84;;;-142.70;70.22
6224;BME280;3145;42.726;23.342;2023-04-22T01:12:57;72693.84;;;-142.70;70.40
6224;BME280;3145;42.726;23.342;2023-04-22T01:15:25;72693.84;;;-142.70;70.35
6224;BME280;3145;42.726;23.342;2023-04-22T01:17:52;72697.88;;;-142.70;70.47
6224;BME280;3145;42.726;23.342;2023-04-22T01:20:20;72693.84;;;-142.70;70.76
6224;BME280;3145;42.726;23.342;2023-04-22T01:22:47;72693.84;;;-142.70;70.25
6224;BME280;3145;42.726;23.342;2023-04-22T01:25:17;72691.84;;;-142.70;70.52
6224;BME280;3145;42.726;23.342;2023-04-22T01:27:44;72693.84;;;-142.70;70.65
6224;BME280;3145;42.726;23.342;2023-04-22T01:30:11;72689.84;;;-142.70;70.21
6224;BME280;3145;42.726;23.342;2023-04-22T01:32:38;72693.84;;;-142.70;70.65
6224;BME280;3145;42.726;23.342;2023-04-22T01:35:07;72687.81;;;-142.70;70.50
6224;BME280;3145;42.726;23.342;2023-04-22T01:37:34;72685.81;;;-142.70;70.58
6224;BME280;3145;42.726;23.342;2023-04-22T01:40:01;72685.81;;;-142.70;70.38
6224;BME280;3145;42.726;23.342;2023-04-22T01:42:30;72681.78;;;-142.70;70.65
6224;BME280;3145;42.726;23.342;2023-04-22T01:44:57;72673.72;;;-142.70;70.62
6224;BME280;3145;42.726;23.342;2023-04-22T01:47:24;72669.69;;;-142.70;70.69
6224;BME280;3145;42.726;23.342;2023-04-22T01:49:51;72673.72;;;-142.70;70.85
6224;BME280;3145;42.726;23.342;2023-04-22T01:52:18;72669.69;;;-142.70;71.15
6224;BME280;3145;42.726;23.342;2023-04-22T01:54:45;72671.69;;;-142.70;71.08
6224;BME280;3145;42.726;23.342;2023-04-22T01:57:13;72665.66;;;-142.70;70.54
6224;BME280;3145;42.726;23.342;2023-04-22T01:59:42;72665.66;;;-142.70;70.83
6224;BME280;3145;42.726;23.342;2023-04-22T02:02:08;72671.69;;;-142.70;70.85
6224;BME280;3145;42.726;23.342;2023-04-22T02:04:35;72675.72;;;-142.70;70.98
6224;BME280;3145;42.726;23.342;2023-04-22T02:07:02;72681.78;;;-142.70;70.72
6224;BME280;3145;42.726;23.342;2023-04-22T02:09:28;72685.81;;;-142.70;70.80
6224;BME280;3145;42.726;23.342;2023-04-22T02:11:55;72685.81;;;-142.70;71.28
6224;BME280;3145;42.726;23.342;2023-04-22T02:14:22;72685.81;;;-142.70;71.08
6224;BME280;3145;42.726;23.342;2023-04-22T02:16:50;72681.78;;;-142.70;71.44
6224;BME280;3145;42.726;23.342;2023-04-22T02:19:17;72677.75;;;-142.70;71.09
6224;BME280;3145;42.726;23.342;2023-04-22T02:21:44;72669.69;;;-142.70;71.21
6224;BME280;3145;42.726;23.342;2023-04-22T02:24:10;72661.63;;;-142.70;70.89
6224;BME280;3145;42.726;23.342;2023-04-22T02:26:37;72653.56;;;-142.70;70.90
6224;BME280;3145;42.726;23.342;2023-04-22T02:29:04;72657.59;;;-142.70;70.48
6224;BME280;3145;42.726;23.342;2023-04-22T02:31:30;72655.59;;;-142.70;70.51
6224;BME280;3145;42.726;23.342;2023-04-22T02:33:58;72655.59;;;-142.70;70.25
6224;BME280;3145;42.726;23.342;2023-04-22T02:36:25;72661.63;;;-142.70;70.55
6224;BME280;3145;42.726;23.342;2023-04-22T02:38:53;72657.59;;;-142.70;70.28
6224;BME280;3145;42.726;23.342;2023-04-22T02:41:19;72661.63;;;-142.70;70.09
6224;BME280;3145;42.726;23.342;2023-04-22T02:43:46;72665.66;;;-142.70;69.94
6224;BME280;3145;42.726;23.342;2023-04-22T02:46:13;72675.72;;;-142.70;70.27
6224;BME280;3145;42.726;23.342;2023-04-22T02:48:40;72669.69;;;-142.70;69.85
6224;BME280;3145;42.726;23.342;2023-04-22T02:51:08;72669.69;;;-142.70;70.41
6224;BME280;3145;42.726;23.342;2023-04-22T02:53:35;72673.72;;;-142.70;70.70
6224;BME280;3145;42.726;23.342;2023-04-22T02:56:02;72665.66;;;-142.70;70.61
6224;BME280;3145;42.726;23.342;2023-04-22T02:58:30;72649.53;;;-142.70;70.81
6224;BME280;3145;42.726;23.342;2023-04-22T03:00:56;72655.59;;;-142.70;70.53
6224;BME280;3145;42.726;23.342;2023-04-22T03:03:23;72653.56;;;-142.70;70.46
6224;BME280;3145;42.726;23.342;2023-04-22T03:05:50;72653.56;;;-142.70;70.16
6224;BME280;3145;42.726;23.342;2023-04-22T03:08:18;72649.53;;;-142.70;70.27
6224;BME280;3145;42.726;23.342;2023-04-22T03:10:45;72657.59;;;-142.70;70.08
6224;BME280;3145;42.726;23.342;2023-04-22T03:13:12;72653.56;;;-142.70;70.09
6224;BME280;3145;42.726;23.342;2023-04-22T03:15:39;72653.56;;;-142.70;70.28
6224;BME280;3145;42.726;23.342;2023-04-22T03:18:05;72647.53;;;-142.70;70.48
6224;BME280;3145;42.726;23.342;2023-04-22T03:20:32;72649.53;;;-142.70;69.95
6224;BME280;3145;42.726;23.342;2023-04-22T03:22:59;72689.84;;;-142.70;69.39
6224;BME280;3145;42.726;23.342;2023-04-22T03:25:27;72724.06;;;-142.70;69.51
6224;BME280;3145;42.726;23.342;2023-04-22T03:27:54;72744.22;;;-142.70;69.63
6224;BME280;3145;42.726;23.342;2023-04-22T03:30:20;72758.31;;;-142.70;69.82
6224;BME280;3145;42.726;23.342;2023-04-22T03:32:47;72762.34;;;-142.70;70.46
6224;BME280;3145;42.726;23.342;2023-04-22T03:35:14;72774.44;;;-142.70;71.48
6224;BME280;3145;42.726;23.342;2023-04-22T03:37:41;72770.41;;;-142.70;71.73
6224;BME280;3145;42.726;23.342;2023-04-22T03:40:09;72776.47;;;-142.70;71.11
6224;BME280;3145;42.726;23.342;2023-04-22T03:42:37;72774.44;;;-142.70;71.68
6224;BME280;3145;42.726;23.342;2023-04-22T03:45:04;72782.50;;;-142.70;71.50
6224;BME280;3145;42.726;23.342;2023-04-22T03:47:31;72780.50;;;-142.70;71.45
6224;BME280;3145;42.726;23.342;2023-04-22T03:49:58;72780.50;;;-142.70;71.71
6224;BME280;3145;42.726;23.342;2023-04-22T03:52:25;72786.53;;;-142.70;72.26
6224;BME280;3145;42.726;23.342;2023-04-22T03:54:51;72774.44;;;-142.70;72.09
6224;BME280;3145;42.726;23.342;2023-04-22T03:57:18;72762.34;;;-142.70;72.09
6224;BME280;3145;42.726;23.342;2023-04-22T03:59:46;72770.41;;;-142.70;71.33
6224;BME280;3145;42.726;23.342;2023-04-22T04:02:13;72770.41;;;-142.70;71.31
6224;BME280;3145;42.726;23.342;2023-04-22T04:04:40;72714.00;;;-142.70;71.82
6224;BME280;3145;42.726;23.342;2023-04-22T04:07:07;72669.69;;;-142.70;71.19
6224;BME280;3145;42.726;23.342;2023-04-22T04:09:33;72625.38;;;-142.70;70.55
6224;BME280;3145;42.726;23.342;2023-04-22T04:12:00;72585.06;;;-142.70;69.71
6224;BME280;3145;42.726;23.342;2023-04-22T04:14:28;72562.91;;;-142.70;68.42
6224;BME280;3145;42.726;23.342;2023-04-22T04:16:56;72532.69;;;-142.70;67.29
6224;BME280;3145;42.726;23.342;2023-04-22T04:19:23;72524.63;;;-142.70;66.27
6224;BME280;3145;42.726;23.342;2023-04-22T04:21:49;72516.56;;;-142.70;65.93
6224;BME280;3145;42.726;23.342;2023-04-22T04:24:18;72524.63;;;-142.70;64.28
6224;BME280;3145;42.726;23.342;2023-04-22T04:26:45;72552.84;;;-142.70;63.03
6224;BME280;3145;42.726;23.342;2023-04-22T04:29:13;72552.84;;;-142.70;63.90
6224;BME280;3145;42.726;23.342;2023-04-22T04:31:40;72524.63;;;-142.70;64.08
6224;BME280;3145;42.726;23.342;2023-04-22T04:34:08;72504.50;;;-142.70;63.50
6224;BME280;3145;42.726;23.342;2023-04-22T04:36:34;72482.34;;;-142.70;61.47
6224;BME280;3145;42.726;23.342;2023-04-22T04:39:04;72496.44;;;-142.70;59.68
6224;BME280;3145;42.726;23.342;2023-04-22T04:41:30;72504.50;;;-142.70;60.73
6224;BME280;3145;42.726;23.342;2023-04-22T04:43:57;72500.47;;;-142.70;61.74
6224;BME280;3145;42.726;23.342;2023-04-22T04:46:25;72480.31;;;-142.70;63.14
6224;BME280;3145;42.726;23.342;2023-04-22T04:48:53;72440.03;;;-142.70;59.76
6224;BME280;3145;42.726;23.342;2023-04-22T04:51:22;72393.69;;;-142.70;58.27
6224;BME280;3145;42.726;23.342;2023-04-22T04:53:48;72363.47;;;-142.70;56.61
6224;BME280;3145;42.726;23.342;2023-04-22T04:56:15;72305.06;;;-142.70;55.08
6224;BME280;3145;42.726;23.342;2023-04-22T04:58:42;72258.72;;;-142.70;53.79
6224;BME280;3145;42.726;23.342;2023-04-22T05:01:08;72198.31;;;-142.70;52.47
6224;BME280;3145;42.726;23.342;2023-04-22T05:03:35;72154.00;;;-142.70;51.73
6224;BME280;3145;42.726;23.342;2023-04-22T05:06:03;72121.75;;;-142.70;49.93
6224;BME280;3145;42.726;23.342;2023-04-22T05:08:31;72121.75;;;-142.70;47.44
6224;BME280;3145;42.726;23.342;2023-04-22T05:10:58;72117.72;;;-142.70;48.17
6224;BME280;3145;42.726;23.342;2023-04-22T05:13:25;72129.81;;;-142.70;48.52
6224;BME280;3145;42.726;23.342;2023-04-22T05:15:51;72097.59;;;-142.70;47.96
6224;BME280;3145;42.726;23.342;2023-04-22T05:18:18;72129.81;;;-142.70;47.21
6224;BME280;3145;42.726;23.342;2023-04-22T05:20:45;72105.66;;;-142.70;48.52
6224;BME280;3145;42.726;23.342;2023-04-22T05:23:19;72055.28;;;-142.70;47.64
6224;BME280;3145;42.726;23.342;2023-04-22T05:25:48;72017.03;;;-142.70;47.12
6224;BME280;3145;42.726;23.342;2023-04-22T05:28:14;72013.00;;;-142.70;45.53
6224;BME280;3145;42.726;23.342;2023-04-22T05:30:41;72079.47;;;-142.70;46.48
6224;BME280;3145;42.726;23.342;2023-04-22T05:33:08;72053.28;;;-142.70;46.32
6224;BME280;3145;42.726;23.342;2023-04-22T05:35:35;72047.22;;;-142.70;46.59
6224;BME280;3145;42.726;23.342;2023-04-22T05:38:01;72051.25;;;-142.70;46.21
6224;BME280;3145;42.726;23.342;2023-04-22T05:40:28;72037.16;;;-142.70;46.38
6224;BME280;3145;42.726;23.342;2023-04-22T05:42:57;71974.72;;;-142.70;45.63
6224;BME280;3145;42.726;23.342;2023-04-22T05:45:23;71936.44;;;-142.70;45.59
6224;BME280;3145;42.726;23.342;2023-04-22T05:47:50;71867.97;;;-142.70;44.44
6224;BME280;3145;42.726;23.342;2023-04-22T05:50:17;71867.97;;;-142.70;44.19
6224;BME280;3145;42.726;23.342;2023-04-22T05:52:44;71819.63;;;-142.70;43.44
6224;BME280;3145;42.726;23.342;2023-04-22T05:55:11;71767.28;;;-142.70;42.68
6224;BME280;3145;42.726;23.342;2023-04-22T05:57:37;71727.00;;;-142.70;41.83
6224;BME280;3145;42.726;23.342;2023-04-22T06:00:07;71680.66;;;-142.70;41.40
6224;BME280;3145;42.726;23.342;2023-04-22T06:02:34;71656.50;;;-142.70;39.61
6224;BME280;3145;42.726;23.342;2023-04-22T06:05:01;71618.22;;;-142.70;39.51
6224;BME280;3145;42.726;23.342;2023-04-22T06:07:28;71557.81;;;-142.70;38.91
6224;BME280;3145;42.726;23.342;2023-04-22T06:09:55;71565.88;;;-142.70;38.15
6224;BME280;3145;42.726;23.342;2023-04-22T06:12:21;71581.97;;;-142.70;38.35
6224;BME280;3145;42.726;23.342;2023-04-22T06:14:48;71579.97;;;-142.70;38.81
6224;BME280;3145;42.726;23.342;2023-04-22T06:17:16;71517.53;;;-142.70;38.62
6224;BME280;3145;42.726;23.342;2023-04-22T06:19:43;71503.44;;;-142.70;37.40
6224;BME280;3145;42.726;23.342;2023-04-22T06:22:10;71467.19;;;-142.70;37.58
6224;BME280;3145;42.726;23.342;2023-04-22T06:24:36;71455.09;;;-142.70;37.28
6224;BME280;3145;42.726;23.342;2023-04-22T06:27:03;71483.28;;;-142.70;37.15
6224;BME280;3145;42.726;23.342;2023-04-22T06:29:30;71445.03;;;-142.70;37.07
6224;BME280;3145;42.726;23.342;2023-04-22T06:31:57;71485.31;;;-142.70;37.44
6224;BME280;3145;42.726;23.342;2023-04-22T06:34:25;71539.69;;;-142.70;37.60
6224;BME280;3145;42.726;23.342;2023-04-22T06:36:51;71517.53;;;-142.70;37.80
6224;BME280;3145;42.726;23.342;2023-04-22T06:39:19;71509.47;;;-142.70;37.92
6224;BME280;3145;42.726;23.342;2023-04-22T06:41:45;71477.25;;;-142.70;37.58
6224;BME280;3145;42.726;23.342;2023-04-22T06:44:13;71493.38;;;-142.70;37.47
6224;BME280;3145;42.726;23.342;2023-04-22T06:46:40;71493.38;;;-142.70;37.69
6224;BME280;3145;42.726;23.342;2023-04-22T06:49:06;71467.19;;;-142.70;37.32
6224;BME280;3145;42.726;23.342;2023-04-22T06:51:35;71493.38;;;-142.70;37.46
6224;BME280;3145;42.726;23.342;2023-04-22T06:54:02;71579.97;;;-142.70;38.39
6224;BME280;3145;42.726;23.342;2023-04-22T06:56:28;71527.59;;;-142.70;38.50
6224;BME280;3145;42.726;23.342;2023-04-22T06:58:55;71497.41;;;-142.70;38.36
6224;BME280;3145;42.726;23.342;2023-04-22T07:01:22;71553.78;;;-142.70;38.53
6224;BME280;3145;42.726;23.342;2023-04-22T07:03:49;71646.44;;;-142.70;39.42
6224;BME280;3145;42.726;23.342;2023-04-22T07:06:15;71662.53;;;-142.70;39.84
6224;BME280;3145;42.726;23.342;2023-04-22T07:08:44;71618.22;;;-142.70;39.61
6224;BME280;3145;42.726;23.342;2023-04-22T07:11:10;71563.84;;;-142.70;39.22
6224;BME280;3145;42.726;23.342;2023-04-22T07:13:37;71569.91;;;-142.70;39.10
6224;BME280;3145;42.726;23.342;2023-04-22T07:16:05;71557.81;;;-142.70;39.25
6224;BME280;3145;42.726;23.342;2023-04-22T07:18:32;71581.97;;;-142.70;39.23
6224;BME280;3145;42.726;23.342;2023-04-22T07:21:00;71545.72;;;-142.70;39.26
6224;BME280;3145;42.726;23.342;2023-04-22T07:23:26;71553.78;;;-142.70;38.84
6224;BME280;3145;42.726;23.342;2023-04-22T07:25:55;71539.69;;;-142.70;39.27
6224;BME280;3145;42.726;23.342;2023-04-22T07:28:22;71457.13;;;-142.70;38.28
6224;BME280;3145;42.726;23.342;2023-04-22T07:30:48;71380.59;;;-142.70;37.67
6224;BME280;3145;42.726;23.342;2023-04-22T07:33:15;71358.44;;;-142.70;36.38
6224;BME280;3145;42.726;23.342;2023-04-22T07:35:42;71420.88;;;-142.70;37.43
6224;BME280;3145;42.726;23.342;2023-04-22T07:38:09;71368.50;;;-142.70;37.19
6224;BME280;3145;42.726;23.342;2023-04-22T07:40:35;71336.28;;;-142.70;36.49
6224;BME280;3145;42.726;23.342;2023-04-22T07:43:04;71314.13;;;-142.70;36.35
6224;BME280;3145;42.726;23.342;2023-04-22T07:45:31;71269.84;;;-142.70;36.39
6224;BME280;3145;42.726;23.342;2023-04-22T07:47:57;71205.38;;;-142.70;35.61
6224;BME280;3145;42.726;23.342;2023-04-22T07:50:24;71263.78;;;-142.70;35.03
6224;BME280;3145;42.726;23.342;2023-04-22T07:52:51;71326.22;;;-142.70;36.10
6224;BME280;3145;42.726;23.342;2023-04-22T07:55:18;71261.78;;;-142.70;35.71
6224;BME280;3145;42.726;23.342;2023-04-22T07:57:47;71304.06;;;-142.70;35.59
6224;BME280;3145;42.726;23.342;2023-04-22T08:00:15;71215.47;;;-142.70;33.70
6224;BME280;3145;42.726;23.342;2023-04-22T08:02:42;71247.69;;;-142.70;34.17
6224;BME280;3145;42.726;23.342;2023-04-22T08:05:10;71283.94;;;-142.70;34.42
6224;BME280;3145;42.726;23.342;2023-04-22T08:07:37;71374.56;;;-142.70;35.43
6224;BME280;3145;42.726;23.342;2023-04-22T08:10:05;71461.16;;;-142.70;35.77
6224;BME280;3145;42.726;23.342;2023-04-22T08:12:32;71457.13;;;-142.70;35.96
6224;BME280;3145;42.726;23.342;2023-04-22T08:14:59;71428.91;;;-142.70;35.66
6224;BME280;3145;42.726;23.342;2023-04-22T08:17:27;71356.44;;;-142.70;35.24
6224;BME280;3145;42.726;23.342;2023-04-22T08:19:54;71384.63;;;-142.70;35.57
6224;BME280;3145;42.726;23.342;2023-04-22T08:22:20;71408.78;;;-142.70;35.47
6224;BME280;3145;42.726;23.342;2023-04-22T08:24:48;71364.47;;;-142.70;34.93
6224;BME280;3145;42.726;23.342;2023-04-22T08:27:14;71364.47;;;-142.70;36.01
6224;BME280;3145;42.726;23.342;2023-04-22T08:29:41;71316.16;;;-142.70;34.79
6224;BME280;3145;42.726;23.342;2023-04-22T08:32:08;71251.72;;;-142.70;34.86
6224;BME280;3145;42.726;23.342;2023-04-22T08:34:36;71197.34;;;-142.70;33.80
6224;BME280;3145;42.726;23.342;2023-04-22T08:37:03;71209.41;;;-142.70;33.19
6224;BME280;3145;42.726;23.342;2023-04-22T08:39:30;71157.06;;;-142.70;33.08
6224;BME280;3145;42.726;23.342;2023-04-22T08:41:56;71098.66;;;-142.70;32.66
6224;BME280;3145;42.726;23.342;2023-04-22T08:44:24;71034.22;;;-142.70;31.33
6224;BME280;3145;42.726;23.342;2023-04-22T08:46:51;71030.19;;;-142.70;31.45
6224;BME280;3145;42.726;23.342;2023-04-22T08:49:19;71048.31;;;-142.70;30.61
6224;BME280;3145;42.726;23.342;2023-04-22T08:51:48;71030.19;;;-142.70;31.47
6224;BME280;3145;42.726;23.342;2023-04-22T08:54:15;71058.41;;;-142.70;30.88
6224;BME280;3145;42.726;23.342;2023-04-22T08:56:43;71076.50;;;-142.70;31.42
6224;BME280;3145;42.726;23.342;2023-04-22T08:59:10;71199.34;;;-142.70;32.09
6224;BME280;3145;42.726;23.342;2023-04-22T09:01:39;71261.78;;;-142.70;33.04
6224;BME280;3145;42.726;23.342;2023-04-22T09:04:08;71308.09;;;-142.70;33.69
6224;BME280;3145;42.726;23.342;2023-04-22T09:06:37;71291.97;;;-142.70;33.35
6224;BME280;3145;42.726;23.342;2023-04-22T09:09:05;71291.97;;;-142.70;33.49
6224;BME280;3145;42.726;23.342;2023-04-22T09:11:34;71283.94;;;-142.70;32.98
6224;BME280;3145;42.726;23.342;2023-04-22T09:14:02;71273.84;;;-142.70;33.17
6224;BME280;3145;42.726;23.342;2023-04-22T09:16:29;71320.19;;;-142.70;33.76
6224;BME280;3145;42.726;23.342;2023-04-22T09:18:59;71253.72;;;-142.70;33.25
6224;BME280;3145;42.726;23.342;2023-04-22T09:21:26;71161.09;;;-142.70;32.39
6224;BME280;3145;42.726;23.342;2023-04-22T09:23:54;71088.59;;;-142.70;31.56
6224;BME280;3145;42.726;23.342;2023-04-22T09:26:24;71072.50;;;-142.70;31.23
6224;BME280;3145;42.726;23.342;2023-04-22T09:28:52;71134.91;;;-142.70;31.18
6224;BME280;3145;42.726;23.342;2023-04-22T09:31:20;71169.16;;;-142.70;31.88
6224;BME280;3145;42.726;23.342;2023-04-22T09:33:49;71134.91;;;-142.70;33.27
6224;BME280;3145;42.726;23.342;2023-04-22T09:36:16;71040.28;;;-142.70;31.30
6224;BME280;3145;42.726;23.342;2023-04-22T09:38:52;71030.19;;;-142.70;31.03
6224;BME280;3145;42.726;23.342;2023-04-22T09:41:26;71086.59;;;-142.70;30.17
6224;BME280;3145;42.726;23.342;2023-04-22T09:43:54;71215.47;;;-142.70;31.08
6224;BME280;3145;42.726;23.342;2023-04-22T09:46:23;71275.88;;;-142.70;30.54
6224;BME280;3145;42.726;23.342;2023-04-22T09:48:50;71366.50;;;-142.70;31.03
6224;BME280;3145;42.726;23.342;2023-04-22T09:51:18;71416.84;;;-142.70;30.75
6224;BME280;3145;42.726;23.342;2023-04-22T09:53:56;71368.50;;;-142.70;30.78
6224;BME280;3145;42.726;23.342;2023-04-22T09:56:43;71348.38;;;-142.70;30.90
6224;BME280;3145;42.726;23.342;2023-04-22T09:59:12;71378.56;;;-142.70;30.60
6224;BME280;3145;42.726;23.342;2023-04-22T10:01:41;71416.84;;;-142.70;31.49
6224;BME280;3145;42.726;23.342;2023-04-22T10:04:08;71368.50;;;-142.70;31.48
6224;BME280;3145;42.726;23.342;2023-04-22T10:06:36;71441.00;;;-142.70;30.90
6224;BME280;3145;42.726;23.342;2023-04-22T10:09:03;71489.34;;;-142.70;30.72
6224;BME280;3145;42.726;23.342;2023-04-22T10:11:30;71553.78;;;-142.70;31.37
6224;BME280;3145;42.726;23.342;2023-04-22T10:13:59;71590.03;;;-142.70;33.72
6224;BME280;3145;42.726;23.342;2023-04-22T10:16:27;71686.72;;;-142.70;36.43
6224;BME280;3145;42.726;23.342;2023-04-22T10:18:57;71749.13;;;-142.70;37.68
6224;BME280;3145;42.726;23.342;2023-04-22T10:21:26;71813.59;;;-142.70;37.40
6224;BME280;3145;42.726;23.342;2023-04-22T10:23:53;71803.53;;;-142.70;36.76
6224;BME280;3145;42.726;23.342;2023-04-22T10:26:47;71771.28;;;-142.70;36.11
6224;BME280;3145;42.726;23.342;2023-04-22T10:29:17;71759.22;;;-142.70;36.66
6224;BME280;3145;42.726;23.342;2023-04-22T10:31:44;71751.16;;;-142.70;36.33
6224;BME280;3145;42.726;23.342;2023-04-22T10:34:12;71722.97;;;-142.70;36.79
6224;BME280;3145;42.726;23.342;2023-04-22T10:36:59;71678.66;;;-142.70;34.68
6224;BME280;3145;42.726;23.342;2023-04-22T10:39:28;71634.34;;;-142.70;34.27
6224;BME280;3145;42.726;23.342;2023-04-22T10:42:03;71592.06;;;-142.70;34.60
6224;BME280;3145;42.726;23.342;2023-04-22T10:44:49;71493.38;;;-142.70;32.74
6224;BME280;3145;42.726;23.342;2023-04-22T10:47:27;71477.25;;;-142.70;31.92
6224;BME280;3145;42.726;23.342;2023-04-22T10:50:15;71509.47;;;-142.70;32.21
6224;BME280;3145;42.726;23.342;2023-04-22T10:52:44;71525.59;;;-142.70;31.15
6224;BME280;3145;42.726;23.342;2023-04-22T10:55:11;71455.09;;;-142.70;31.78
6224;BME280;3145;42.726;23.342;2023-04-22T10:57:40;71477.25;;;-142.70;31.81
6224;BME280;3145;42.726;23.342;2023-04-22T11:00:23;71473.22;;;-142.70;33.11
6224;BME280;3145;42.726;23.342;2023-04-22T11:02:52;71547.75;;;-142.70;33.83
6224;BME280;3145;42.726;23.342;2023-04-22T11:05:21;71559.81;;;-142.70;33.76
6224;BME280;3145;42.726;23.342;2023-04-22T11:07:49;71590.03;;;-142.70;33.67
6224;BME280;3145;42.726;23.342;2023-04-22T11:10:33;71654.47;;;-142.70;36.06
6224;BME280;3145;42.726;23.342;2023-04-22T11:13:00;71684.69;;;-142.70;37.54
6224;BME280;3145;42.726;23.342;2023-04-22T11:15:29;71710.88;;;-142.70;38.16
6224;BME280;3145;42.726;23.342;2023-04-22T11:17:56;71761.22;;;-142.70;39.31
6224;BME280;3145;42.726;23.342;2023-04-22T11:20:23;71741.09;;;-142.70;39.28
6224;BME280;3145;42.726;23.342;2023-04-22T11:22:51;71759.22;;;-142.70;39.59
6224;BME280;3145;42.726;23.342;2023-04-22T11:25:18;71706.84;;;-142.70;40.36
6224;BME280;3145;42.726;23.342;2023-04-22T11:27:45;71708.88;;;-142.70;38.78
6224;BME280;3145;42.726;23.342;2023-04-22T11:30:14;71735.03;;;-142.70;38.38
6224;BME280;3145;42.726;23.342;2023-04-22T11:32:44;71735.03;;;-142.70;39.24
6224;BME280;3145;42.726;23.342;2023-04-22T11:35:14;71714.91;;;-142.70;39.00
6224;BME280;3145;42.726;23.342;2023-04-22T11:37:42;71716.91;;;-142.70;38.67
6224;BME280;3145;42.726;23.342;2023-04-22T11:40:10;71678.66;;;-142.70;39.26
6224;BME280;3145;42.726;23.342;2023-04-22T11:42:38;71759.22;;;-142.70;38.96
6224;BME280;3145;42.726;23.342;2023-04-22T11:45:06;71755.19;;;-142.70;39.30
6224;BME280;3145;42.726;23.342;2023-04-22T11:47:33;71759.22;;;-142.70;39.56
6224;BME280;3145;42.726;23.342;2023-04-22T11:50:03;71751.16;;;-142.70;39.41
6224;BME280;3145;42.726;23.342;2023-04-22T11:52:42;71775.31;;;-142.70;39.31
6224;BME280;3145;42.726;23.342;2023-04-22T11:55:10;71757.19;;;-142.70;38.72
6224;BME280;3145;42.726;23.342;2023-04-22T11:57:37;71779.34;;;-142.70;38.65
6224;BME280;3145;42.726;23.342;2023-04-22T12:00:05;71767.28;;;-142.70;38.46
6224;BME280;3145;42.726;23.342;2023-04-22T12:02:32;71722.97;;;-142.70;38.22
6224;BME280;3145;42.726;23.342;2023-04-22T12:04:58;71676.63;;;-142.70;38.05
6224;BME280;3145;42.726;23.342;2023-04-22T12:07:28;71664.56;;;-142.70;37.76
6224;BME280;3145;42.726;23.342;2023-04-22T12:09:57;71642.41;;;-142.70;37.38
6224;BME280;3145;42.726;23.342;2023-04-22T12:12:26;71608.16;;;-142.70;36.16
6224;BME280;3145;42.726;23.342;2023-04-22T12:14:52;71622.25;;;-142.70;36.73
6224;BME280;3145;42.726;23.342;2023-04-22T12:17:22;71650.44;;;-142.70;37.87
6224;BME280;3145;42.726;23.342;2023-04-22T12:19:52;71604.13;;;-142.70;36.69
6224;BME280;3145;42.726;23.342;2023-04-22T12:22:24;71547.75;;;-142.70;36.19
6224;BME280;3145;42.726;23.342;2023-04-22T12:24:53;71541.69;;;-142.70;35.82
6224;BME280;3145;42.726;23.342;2023-04-22T12:27:19;71590.03;;;-142.70;36.75
6224;BME280;3145;42.726;23.342;2023-04-22T12:29:53;71616.22;;;-142.70;37.00
6224;BME280;3145;42.726;23.342;2023-04-22T12:32:21;71626.28;;;-142.70;37.65
6224;BME280;3145;42.726;23.342;2023-04-22T12:34:48;71590.03;;;-142.70;38.67
6224;BME280;3145;42.726;23.342;2023-04-22T12:37:15;71586.00;;;-142.70;36.97
6224;BME280;3145;42.726;23.342;2023-04-22T12:39:42;71626.28;;;-142.70;36.54
6224;BME280;3145;42.726;23.342;2023-04-22T12:42:10;71630.31;;;-142.70;37.45
6224;BME280;3145;42.726;23.342;2023-04-22T12:44:37;71618.22;;;-142.70;36.92
6224;BME280;3145;42.726;23.342;2023-04-22T12:47:04;71602.13;;;-142.70;36.75
6224;BME280;3145;42.726;23.342;2023-04-22T12:49:31;71571.91;;;-142.70;36.66
6224;BME280;3145;42.726;23.342;2023-04-22T12:51:58;71622.25;;;-142.70;36.79
6224;BME280;3145;42.726;23.342;2023-04-22T12:54:24;71654.47;;;-142.70;36.82